Time;durP1;ratioP1;P1;durP2;ratioP2;P2;SDS_P1;SDS_P2;PMS_P1;PMS_P2;Temp;Humidity;BMP_temperature;BMP_pressure;BME280_temperature;BME280_humidity;BME280_pressure;Samples;Min_cycle;Max_cycle;Signal;HPM_P1;HPM_P2
2022/09/28 00:02:10;;;;;;;68.20;40.97;;;28.10;99.90;;;;;;5075946;28;20046;-68
2022/09/28 00:04:36;;;;;;;60.55;40.05;;;28.10;99.90;;;;;;5075920;28;20036;-68
2022/09/28 00:07:03;;;;;;;59.80;39.03;;;28.20;99.90;;;;;;5075686;28;20032;-68
2022/09/28 00:09:29;;;;;;;63.53;38.50;;;28.20;99.90;;;;;;5075954;28;20016;-67
2022/09/28 00:11:56;;;;;;;63.17;42.65;;;28.20;99.90;;;;;;5075909;28;20020;-68
2022/09/28 00:14:23;;;;;;;67.53;40.90;;;28.20;99.90;;;;;;5075709;28;20374;-68
2022/09/28 00:16:50;;;;;;;63.30;42.78;;;28.20;99.90;;;;;;5078233;28;20099;-66
2022/09/28 00:19:16;;;;;;;75.65;43.75;;;28.30;99.90;;;;;;5084529;28;20103;-67
2022/09/28 00:21:43;;;;;;;69.45;43.17;;;28.40;99.90;;;;;;5075560;28;20387;-68
2022/09/28 00:24:14;;;;;;;66.00;40.80;;;28.50;99.90;;;;;;5075578;28;20436;-68
2022/09/28 00:26:45;;;;;;;60.28;40.53;;;28.70;99.90;;;;;;5075606;28;20036;-69
2022/09/28 00:29:22;;;;;;;58.33;40.60;;;28.90;99.90;;;;;;5075428;28;20085;-68
2022/09/28 00:31:51;;;;;;;65.57;41.10;;;29.00;99.90;;;;;;5075499;28;20095;-68
2022/09/28 00:34:18;;;;;;;71.85;41.55;;;29.10;99.90;;;;;;5075306;28;20035;-68
2022/09/28 00:36:46;;;;;;;64.03;40.53;;;29.30;99.90;;;;;;5075362;28;20028;-67
2022/09/28 00:39:14;;;;;;;59.78;38.83;;;29.30;99.90;;;;;;5075453;28;20033;-67
2022/09/28 00:41:41;;;;;;;62.83;37.67;;;29.40;99.90;;;;;;5075123;28;20467;-66
2022/09/28 00:44:48;;;;;;;54.22;36.55;;;29.50;99.90;;;;;;5075366;28;20040;-67
2022/09/28 00:47:23;;;;;;;54.58;36.50;;;29.60;99.90;;;;;;5074597;28;20470;-70
2022/09/28 00:50:12;;;;;;;56.83;36.65;;;29.60;99.90;;;;;;5075216;28;20035;-69
2022/09/28 00:52:39;;;;;;;54.60;37.42;;;29.60;99.90;;;;;;4974122;28;20043;-70
2022/09/28 00:55:11;;;;;;;56.75;38.42;;;29.70;99.90;;;;;;4993471;28;20026;-68
2022/09/28 00:57:42;;;;;;;60.50;40.40;;;29.70;99.90;;;;;;5002127;28;20029;-69
2022/09/28 01:00:10;;;;;;;60.28;40.22;;;29.80;99.90;;;;;;4998944;28;20030;-68
2022/09/28 01:02:36;;;;;;;56.45;40.95;;;29.80;99.90;;;;;;5011756;28;20053;-68
2022/09/28 01:05:04;;;;;;;83.45;41.05;;;29.90;99.90;;;;;;5013023;28;20040;-68
2022/09/28 01:07:31;;;;;;;52.45;34.40;;;29.90;99.90;;;;;;5012850;28;20046;-68
2022/09/28 01:09:58;;;;;;;54.67;34.90;;;30.00;99.90;;;;;;5012848;28;20481;-69
2022/09/28 01:12:25;;;;;;;46.65;34.00;;;30.00;99.90;;;;;;5012935;28;20030;-67
2022/09/28 01:14:52;;;;;;;53.15;36.97;;;30.00;99.90;;;;;;5013025;28;20029;-67
2022/09/28 01:17:30;;;;;;;57.53;36.75;;;30.10;99.90;;;;;;5012624;28;20129;-69
2022/09/28 01:19:59;;;;;;;51.45;34.55;;;30.10;99.90;;;;;;5012547;28;20097;-67
2022/09/28 01:23:05;;;;;;;53.55;36.40;;;30.20;99.90;;;;;;5029778;28;20482;-68
2022/09/28 01:26:00;;;;;;;47.70;33.97;;;30.30;99.90;;;;;;5114943;28;20454;-68
2022/09/28 01:28:29;;;;;;;52.53;37.70;;;30.30;99.90;;;;;;5115045;28;20084;-68
2022/09/28 01:30:59;;;;;;;52.00;35.83;;;30.30;99.90;;;;;;5115094;28;20445;-67
2022/09/28 01:33:35;;;;;;;50.63;36.60;;;30.40;99.90;;;;;;5115164;28;20043;-67
2022/09/28 01:36:27;;;;;;;50.40;35.25;;;30.40;99.90;;;;;;5114894;28;20016;-68
2022/09/28 01:39:01;;;;;;;56.03;36.97;;;30.40;99.90;;;;;;5114224;28;20031;-68
2022/09/28 01:41:31;;;;;;;52.50;36.35;;;30.50;99.90;;;;;;5114635;28;20051;-68
2022/09/28 01:44:01;;;;;;;57.00;36.28;;;30.50;99.90;;;;;;5114660;28;20078;-69
2022/09/28 01:46:43;;;;;;;56.90;38.63;;;30.50;99.90;;;;;;5114482;28;20024;-69
2022/09/28 01:49:37;;;;;;;53.22;36.28;;;30.40;99.90;;;;;;5114226;28;20052;-69
2022/09/28 01:52:24;;;;;;;50.70;36.40;;;30.40;99.90;;;;;;5011861;28;20068;-67
2022/09/28 01:55:16;;;;;;;48.92;36.53;;;30.40;99.90;;;;;;5012151;28;20026;-66
2022/09/28 01:57:50;;;;;;;48.00;34.55;;;30.50;99.90;;;;;;5012101;28;20033;-68
2022/09/28 02:00:19;;;;;;;50.55;33.80;;;30.50;99.90;;;;;;5012041;28;20424;-69
2022/09/28 02:03:12;;;;;;;48.10;34.03;;;30.70;99.90;;;;;;5001031;28;20045;-68
2022/09/28 02:05:42;;;;;;;53.72;37.63;;;30.80;99.90;;;;;;4980857;28;20041;-69
2022/09/28 02:08:21;;;;;;;49.15;37.28;;;30.70;99.90;;;;;;4989611;28;20031;-68
2022/09/28 02:10:53;;;;;;;53.53;37.90;;;30.80;99.90;;;;;;4981515;28;20060;-67
2022/09/28 02:13:24;;;;;;;;;;;30.80;99.90;;;;;;4992224;28;20106;-68
2022/09/28 02:15:55;;;;;;;58.42;36.60;;;30.90;99.90;;;;;;4992006;28;20304;-68
2022/09/28 02:18:21;;;;;;;49.63;36.92;;;30.90;99.90;;;;;;4992046;28;20064;-71
2022/09/28 02:21:12;;;;;;;50.53;37.35;;;30.90;99.90;;;;;;4995154;28;20388;-69
2022/09/28 02:23:44;;;;;;;55.75;36.40;;;30.90;99.90;;;;;;5011534;28;20615;-69
2022/09/28 02:26:13;;;;;;;53.22;35.70;;;30.90;99.90;;;;;;5011727;28;20481;-69
2022/09/28 02:28:39;;;;;;;53.65;34.72;;;31.00;99.90;;;;;;5041034;28;20111;-67
2022/09/28 02:31:06;;;;;;;46.33;34.53;;;31.10;99.90;;;;;;5093491;28;20022;-66
2022/09/28 02:33:37;;;;;;;52.00;35.80;;;31.20;99.90;;;;;;5093560;28;20023;-67
2022/09/28 02:36:04;;;;;;;53.72;35.22;;;31.30;99.90;;;;;;5093560;28;20027;-67
2022/09/28 02:38:31;;;;;;;44.65;34.28;;;31.40;99.90;;;;;;5093327;28;20024;-67
2022/09/28 02:41:28;;;;;;;49.70;35.30;;;31.30;99.90;;;;;;5093350;28;20024;-67
2022/09/28 02:44:15;;;;;;;43.50;35.53;;;31.30;99.90;;;;;;5093338;28;20062;-67
2022/09/28 02:47:11;;;;;;;45.78;36.33;;;31.30;99.90;;;;;;5093278;28;20138;-67
2022/09/28 02:49:43;;;;;;;61.10;39.70;;;31.20;99.90;;;;;;5011250;28;20048;-69
2022/09/28 02:52:11;;;;;;;46.67;38.08;;;31.20;99.90;;;;;;5011194;28;20598;-66
2022/09/28 02:55:17;;;;;;;47.88;38.15;;;31.50;99.90;;;;;;5011203;28;20038;-67
2022/09/28 02:58:11;;;;;;;48.97;38.35;;;31.60;99.90;;;;;;4952839;28;20058;-67
2022/09/28 03:00:46;;;;;;;44.47;35.13;;;31.70;99.90;;;;;;4952736;29;20035;-70
2022/09/28 03:03:24;;;;;;;46.97;34.40;;;31.80;99.90;;;;;;4952866;29;20039;-68
2022/09/28 03:06:02;;;;;;;41.72;33.80;;;31.90;99.90;;;;;;4952688;29;20031;-68
2022/09/28 03:08:36;;;;;;;45.58;36.25;;;32.00;99.90;;;;;;4952757;29;20438;-68
2022/09/28 03:11:18;;;;;;;44.10;35.58;;;32.00;99.90;;;;;;4952613;29;20032;-67
2022/09/28 03:13:45;;;;;;;46.90;36.05;;;31.90;99.90;;;;;;4952860;29;20483;-68
2022/09/28 03:16:14;;;;;;;46.95;35.88;;;31.90;99.90;;;;;;4952698;29;20049;-69
2022/09/28 03:18:41;;;;;;;47.45;34.97;;;31.90;99.90;;;;;;4952827;29;20043;-68
2022/09/28 03:21:12;;;;;;;43.50;34.50;;;31.90;99.90;;;;;;4923088;29;20277;-68
2022/09/28 03:23:39;;;;;;;46.20;33.72;;;32.10;99.90;;;;;;4932713;29;20426;-65
2022/09/28 03:26:10;;;;;;;45.85;34.95;;;32.20;99.90;;;;;;4952045;28;20048;-68
2022/09/28 03:28:36;;;;;;;52.00;35.08;;;32.30;99.90;;;;;;5014994;28;20105;-68
2022/09/28 03:31:03;;;;;;;47.85;36.08;;;32.30;99.90;;;;;;5014791;28;20109;-68
2022/09/28 03:33:29;;;;;;;39.83;32.88;;;32.20;99.90;;;;;;5014972;28;20037;-67
2022/09/28 03:35:56;;;;;;;44.03;33.45;;;32.20;99.90;;;;;;5015021;28;20026;-67
2022/09/28 03:38:22;;;;;;;41.45;31.80;;;32.20;99.90;;;;;;5014632;28;20030;-68
2022/09/28 03:40:59;;;;;;;42.95;33.92;;;32.30;99.90;;;;;;5041522;28;20490;-68
2022/09/28 03:43:27;;;;;;;43.42;34.58;;;32.40;99.90;;;;;;5083827;28;20025;-70
2022/09/28 03:45:56;;;;;;;48.00;34.78;;;32.40;99.90;;;;;;5076427;28;20493;-70
2022/09/28 03:48:24;;;;;;;46.17;34.80;;;32.40;99.90;;;;;;5076505;28;20114;-70
2022/09/28 03:50:56;;;;;;;42.60;35.90;;;32.20;99.90;;;;;;5076267;28;20462;-71
2022/09/28 03:53:23;;;;;;;44.35;33.58;;;32.20;99.90;;;;;;5076067;28;20024;-71
2022/09/28 03:55:52;;;;;;;44.13;33.58;;;32.30;99.90;;;;;;5076126;28;20017;-70
2022/09/28 03:58:19;;;;;;;43.03;34.75;;;32.30;99.90;;;;;;5076169;28;20029;-71
2022/09/28 04:00:46;;;;;;;42.97;34.03;;;32.50;99.90;;;;;;5084795;28;20094;-69
2022/09/28 04:03:13;;;;;;;40.75;32.17;;;32.60;99.90;;;;;;5075930;28;20024;-69
2022/09/28 04:05:48;;;;;;;48.67;35.63;;;32.60;99.90;;;;;;5088007;28;20035;-68
2022/09/28 04:08:15;;;;;;;38.72;33.38;;;32.60;99.90;;;;;;5076191;28;20032;-72
2022/09/28 04:10:42;;;;;;;42.28;33.92;;;32.70;99.90;;;;;;5075731;28;20498;-73
2022/09/28 04:13:08;;;;;;;42.33;34.47;;;32.70;99.90;;;;;;5075755;28;20105;-73
2022/09/28 04:15:37;;;;;;;37.17;30.48;;;32.60;99.90;;;;;;5076238;28;20104;-73
2022/09/28 04:18:08;;;;;;;32.78;27.70;;;32.70;99.90;;;;;;5075313;28;20021;-73
2022/09/28 04:20:34;;;;;;;33.60;24.80;;;32.90;99.00;;;;;;5075529;28;20435;-73
2022/09/28 04:23:01;;;;;;;33.00;26.23;;;32.70;96.50;;;;;;5075683;28;20028;-72
2022/09/28 04:25:27;;;;;;;34.55;26.05;;;32.60;97.40;;;;;;5075248;28;20078;-72
2022/09/28 04:30:40;;;;;;;45.50;33.97;;;32.90;97.60;;;;;;5075363;28;20032;-73
2022/09/28 04:33:07;;;;;;;93.30;73.43;;;33.00;98.40;;;;;;5075171;28;20052;-70
2022/09/28 04:35:33;;;;;;;93.13;75.90;;;32.90;98.40;;;;;;5075307;28;20020;-72
2022/09/28 04:38:00;;;;;;;63.97;52.10;;;33.00;97.70;;;;;;5075119;28;20479;-72
2022/09/28 04:40:27;;;;;;;61.80;45.42;;;33.00;97.70;;;;;;5080833;28;20028;-74
2022/09/28 04:42:54;;;;;;;56.30;27.05;;;33.00;95.90;;;;;;5075515;28;20104;-70
2022/09/28 04:45:22;;;;;;;49.38;29.85;;;33.10;96.20;;;;;;5099036;28;20488;-68
2022/09/28 04:47:48;;;;;;;37.78;25.70;;;33.10;96.00;;;;;;5081561;28;20051;-71
2022/09/28 04:50:15;;;;;;;26.95;22.02;;;33.20;95.80;;;;;;5110365;28;20086;-70
2022/09/28 04:52:41;;;;;;;31.83;23.50;;;33.50;94.10;;;;;;5097394;28;20016;-69
2022/09/28 04:55:12;;;;;;;37.78;23.83;;;33.60;93.90;;;;;;5097638;28;20023;-69
2022/09/28 04:57:39;;;;;;;34.03;25.10;;;33.70;94.00;;;;;;5096490;28;20035;-67
2022/09/28 05:00:07;;;;;;;33.92;24.98;;;33.70;93.70;;;;;;5096790;28;20032;-70
2022/09/28 05:02:33;;;;;;;31.95;23.08;;;33.80;92.50;;;;;;5100400;28;20028;-69
2022/09/28 05:05:00;;;;;;;30.63;23.83;;;33.60;92.80;;;;;;5106264;28;20031;-73
2022/09/28 05:07:26;;;;;;;106.38;76.63;;;33.50;93.60;;;;;;5108623;28;20047;-71
2022/09/28 05:09:54;;;;;;;50.67;36.95;;;33.60;93.50;;;;;;5103680;28;20062;-76
2022/09/28 05:12:21;;;;;;;50.17;39.08;;;33.80;92.30;;;;;;5104169;28;20114;-70
2022/09/28 05:14:47;;;;;;;33.67;25.65;;;33.60;93.30;;;;;;5100777;28;20095;-70
2022/09/28 05:17:14;;;;;;;48.67;40.92;;;34.00;92.10;;;;;;5102788;28;20074;-67
2022/09/28 05:19:40;;;;;;;32.10;24.73;;;34.00;92.30;;;;;;5104001;28;20467;-67
2022/09/28 05:22:12;;;;;;;60.92;54.20;;;33.90;92.20;;;;;;5108181;28;20024;-68
2022/09/28 05:24:39;;;;;;;36.17;27.60;;;34.10;92.20;;;;;;5096562;28;20012;-71
2022/09/28 05:27:06;;;;;;;41.95;30.75;;;34.20;90.80;;;;;;5098210;28;20024;-67
2022/09/28 05:29:32;;;;;;;36.72;28.85;;;34.10;90.40;;;;;;5104772;28;20044;-67
2022/09/28 05:32:00;;;;;;;52.67;40.33;;;34.00;91.10;;;;;;5100794;28;20027;-70
2022/09/28 05:34:26;;;;;;;299.27;173.32;;;34.20;90.20;;;;;;5108119;28;20106;-69
2022/09/28 05:36:53;;;;;;;42.05;32.40;;;34.20;91.20;;;;;;5112714;28;20031;-70
2022/09/28 05:39:20;;;;;;;43.05;31.13;;;34.20;92.10;;;;;;5095613;28;20078;-68
2022/09/28 05:41:46;;;;;;;35.65;26.10;;;34.20;90.20;;;;;;5094202;28;20043;-69
2022/09/28 05:44:13;;;;;;;32.45;25.30;;;34.10;88.10;;;;;;5093732;28;20062;-68
2022/09/28 05:46:39;;;;;;;32.08;26.98;;;34.00;86.20;;;;;;5091192;28;20012;-69
2022/09/28 05:49:06;;;;;;;33.78;27.63;;;33.80;89.20;;;;;;5097062;28;20039;-68
2022/09/28 05:51:32;;;;;;;32.25;26.80;;;33.80;90.60;;;;;;5110391;28;20064;-68
2022/09/28 05:53:59;;;;;;;33.97;28.05;;;33.90;90.80;;;;;;5098107;28;20107;-69
2022/09/28 05:56:25;;;;;;;35.58;28.15;;;34.00;89.10;;;;;;5104566;28;20088;-68
2022/09/28 05:58:52;;;;;;;34.97;28.15;;;34.10;90.40;;;;;;5105368;28;20075;-68
2022/09/28 06:01:19;;;;;;;38.05;29.63;;;34.10;90.20;;;;;;5099262;28;20577;-67
2022/09/28 06:03:45;;;;;;;38.78;29.13;;;34.00;90.60;;;;;;5114320;28;20031;-69
2022/09/28 06:06:12;;;;;;;35.53;28.80;;;34.10;90.00;;;;;;5114260;28;20028;-70
2022/09/28 06:08:41;;;;;;;39.85;28.77;;;34.00;90.80;;;;;;5114127;28;20102;-69
2022/09/28 06:11:11;;;;;;;35.88;28.90;;;34.10;89.80;;;;;;5113993;28;20465;-68
2022/09/28 06:13:40;;;;;;;36.28;28.55;;;34.00;90.50;;;;;;5114079;28;20104;-69
2022/09/28 06:16:09;;;;;;;35.50;29.80;;;34.00;90.40;;;;;;5114249;28;20047;-69
2022/09/28 06:18:35;;;;;;;36.33;31.30;;;33.90;90.80;;;;;;5114091;28;20088;-68
2022/09/28 06:21:02;;;;;;;34.90;28.02;;;33.90;90.60;;;;;;5114535;28;20079;-70
2022/09/28 06:23:29;;;;;;;32.95;29.35;;;34.00;90.10;;;;;;5111954;28;20147;-71
2022/09/28 06:25:57;;;;;;;33.83;28.65;;;34.00;89.30;;;;;;5112540;28;20019;-70
2022/09/28 06:28:25;;;;;;;31.83;28.23;;;34.00;87.90;;;;;;5112644;28;20027;-69
2022/09/28 06:30:52;;;;;;;34.33;28.50;;;33.90;87.00;;;;;;5113205;28;20020;-68
2022/09/28 06:33:20;;;;;;;33.05;28.48;;;33.90;88.20;;;;;;5113204;28;20020;-68
2022/09/28 06:35:47;;;;;;;32.80;29.02;;;34.00;89.90;;;;;;5106854;28;20478;-69
2022/09/28 06:38:13;;;;;;;33.47;28.23;;;34.00;90.20;;;;;;5104068;28;20055;-69
2022/09/28 06:40:40;;;;;;;39.38;29.17;;;34.10;89.00;;;;;;5096915;28;20372;-69
2022/09/28 06:43:13;;;;;;;36.05;29.50;;;34.10;88.30;;;;;;5095976;28;20103;-69
2022/09/28 06:45:40;;;;;;;33.67;29.60;;;34.10;88.70;;;;;;5101692;28;20027;-68
2022/09/28 06:48:09;;;;;;;36.95;31.73;;;34.10;87.70;;;;;;5103390;28;20101;-68
2022/09/28 06:50:39;;;;;;;36.83;28.92;;;34.10;88.70;;;;;;5101966;28;20510;-68
2022/09/28 06:53:09;;;;;;;30.48;27.20;;;34.00;89.70;;;;;;5101883;28;20028;-69
2022/09/28 06:55:40;;;;;;;68.25;55.53;;;33.90;88.90;;;;;;5103352;28;20024;-67
2022/09/28 06:58:10;;;;;;;54.83;42.33;;;33.80;88.90;;;;;;5102561;28;20024;-68
2022/09/28 07:00:38;;;;;;;61.72;50.03;;;33.70;89.80;;;;;;5099848;28;20055;-69
2022/09/28 07:03:07;;;;;;;39.60;29.55;;;33.70;89.50;;;;;;5106376;28;20084;-68
2022/09/28 07:05:40;;;;;;;67.55;54.03;;;33.80;89.00;;;;;;5107597;28;20012;-67
2022/09/28 07:08:07;;;;;;;39.17;32.85;;;33.80;88.70;;;;;;5106767;28;20028;-71
2022/09/28 07:10:33;;;;;;;72.70;54.22;;;33.90;88.40;;;;;;5105578;28;20016;-69
2022/09/28 07:13:03;;;;;;;45.10;34.70;;;33.90;88.50;;;;;;5107053;28;20103;-69
2022/09/28 07:15:31;;;;;;;52.30;40.38;;;33.90;88.50;;;;;;5116599;28;20023;-69
2022/09/28 07:17:59;;;;;;;48.25;35.05;;;33.80;88.80;;;;;;5117449;28;20389;-68
2022/09/28 07:20:26;;;;;;;44.65;35.17;;;33.80;86.80;;;;;;5096993;28;20020;-67
2022/09/28 07:22:55;;;;;;;36.78;27.15;;;33.80;84.10;;;;;;5087143;28;20077;-69
2022/09/28 07:25:23;;;;;;;125.85;76.68;;;33.90;84.30;;;;;;5077030;28;20021;-69
2022/09/28 07:27:49;;;;;;;38.78;30.20;;;33.80;85.50;;;;;;5077002;28;20035;-68
2022/09/28 07:30:16;;;;;;;34.20;27.92;;;33.90;84.40;;;;;;5077324;28;20051;-69
2022/09/28 07:32:45;;;;;;;33.50;27.80;;;33.90;83.80;;;;;;5076891;28;20021;-66
2022/09/28 07:35:11;;;;;;;35.40;28.05;;;33.90;83.80;;;;;;5076860;28;20017;-69
2022/09/28 07:37:38;;;;;;;33.60;27.88;;;33.90;84.10;;;;;;5076667;28;20059;-68
2022/09/28 07:42:53;;;;;;;34.40;25.38;;;34.00;84.80;;;;;;5087794;28;20455;-70
2022/09/28 07:45:22;;;;;;;31.73;27.10;;;34.10;84.10;;;;;;5076529;28;20031;-68
2022/09/28 07:47:50;;;;;;;34.30;26.23;;;34.10;85.20;;;;;;5075906;28;20063;-69
2022/09/28 07:50:16;;;;;;;30.77;26.45;;;34.10;85.60;;;;;;5076136;28;20098;-71
2022/09/28 07:52:44;;;;;;;32.75;26.13;;;34.20;84.20;;;;;;5058313;28;20360;-69
2022/09/28 07:55:11;;;;;;;34.60;27.52;;;34.20;83.40;;;;;;5076083;28;20020;-67
2022/09/28 07:57:38;;;;;;;43.15;34.35;;;34.20;85.20;;;;;;5076170;28;20322;-69
2022/09/28 08:00:07;;;;;;;34.83;27.70;;;34.20;84.40;;;;;;5076548;28;20508;-70
2022/09/28 08:02:36;;;;;;;30.60;25.92;;;34.10;84.20;;;;;;5076437;28;20430;-68
2022/09/28 08:05:03;;;;;;;30.95;23.15;;;34.10;85.20;;;;;;5075507;28;20096;-69
2022/09/28 08:07:31;;;;;;;29.73;24.48;;;34.00;83.40;;;;;;5076094;28;20085;-70
2022/09/28 08:09:57;;;;;;;37.90;28.45;;;34.10;84.40;;;;;;5075704;28;20032;-68
2022/09/28 08:12:24;;;;;;;39.03;33.55;;;34.10;83.00;;;;;;5075364;28;20020;-68
2022/09/28 08:14:51;;;;;;;105.05;79.88;;;34.10;81.00;;;;;;5085722;28;20028;-69
2022/09/28 08:17:18;;;;;;;39.80;30.55;;;34.10;81.60;;;;;;5077421;28;20091;-68
2022/09/28 08:22:31;;;;;;;32.40;24.17;;;34.10;82.50;;;;;;5096234;28;20036;-71
2022/09/28 08:24:57;;;;;;;27.92;23.50;;;34.10;79.80;;;;;;5096300;28;20040;-70
2022/09/28 08:27:24;;;;;;;31.98;23.52;;;34.20;79.80;;;;;;5106982;28;20472;-68
2022/09/28 08:29:50;;;;;;;46.08;31.92;;;34.20;80.00;;;;;;5116086;28;20069;-69
2022/09/28 08:32:18;;;;;;;54.35;39.42;;;34.30;82.10;;;;;;5116027;28;20019;-68
2022/09/28 08:34:44;;;;;;;42.95;27.45;;;34.30;81.60;;;;;;5115916;28;20019;-68
2022/09/28 08:37:11;;;;;;;36.75;25.70;;;34.40;79.80;;;;;;5115993;28;20026;-69
2022/09/28 08:39:38;;;;;;;29.77;23.17;;;34.40;79.70;;;;;;5115787;28;20034;-67
2022/09/28 08:42:05;;;;;;;34.83;27.58;;;34.40;78.40;;;;;;5107994;28;20043;-69
2022/09/28 08:44:50;;;;;;;33.28;25.25;;;34.40;79.70;;;;;;5095552;28;20028;-71
2022/09/28 08:50:23;;;;;;;42.22;34.70;;;34.40;78.90;;;;;;4988102;28;20046;-68
2022/09/28 08:52:57;;;;;;;34.75;27.45;;;34.40;79.30;;;;;;4975305;28;20026;-69
2022/09/28 08:55:30;;;;;;;35.83;28.23;;;34.40;80.70;;;;;;4975408;28;20081;-68
2022/09/28 08:58:20;;;;;;;36.03;27.55;;;34.40;80.20;;;;;;4975165;28;20042;-69
2022/09/28 09:00:49;;;;;;;39.70;26.45;;;34.40;81.80;;;;;;4974463;28;20031;-69
2022/09/28 09:03:22;;;;;;;41.20;27.15;;;34.40;81.80;;;;;;4974076;28;20121;-69
2022/09/28 09:06:10;;;;;;;35.58;26.77;;;34.50;79.90;;;;;;4977678;28;20043;-68
2022/09/28 09:08:46;;;;;;;35.97;26.10;;;34.40;79.60;;;;;;4993786;28;20030;-69
2022/09/28 09:11:22;;;;;;;34.53;25.50;;;34.40;79.50;;;;;;4993098;28;20173;-69
2022/09/28 09:13:52;;;;;;;36.17;27.67;;;34.30;79.50;;;;;;4993393;28;20398;-70
2022/09/28 09:16:20;;;;;;;34.25;23.77;;;34.20;80.40;;;;;;4993180;28;20034;-69
2022/09/28 09:19:08;;;;;;;28.38;21.98;;;34.20;80.60;;;;;;4993307;28;20034;-68
2022/09/28 09:21:40;;;;;;;31.42;21.83;;;34.10;79.80;;;;;;5077967;28;20032;-69
2022/09/28 09:24:20;;;;;;;31.58;21.30;;;34.10;79.80;;;;;;5093981;28;20028;-68
2022/09/28 09:26:53;;;;;;;37.38;22.23;;;34.00;79.00;;;;;;5094743;28;20032;-68
2022/09/28 09:29:31;;;;;;;28.00;21.25;;;33.90;79.80;;;;;;5091654;28;20020;-69
2022/09/28 09:32:16;;;;;;;40.83;23.52;;;33.80;82.80;;;;;;5078263;28;20516;-69
2022/09/28 09:35:04;;;;;;;35.95;22.42;;;33.80;83.30;;;;;;5074791;28;20024;-68
2022/09/28 09:37:33;;;;;;;37.75;21.70;;;33.80;81.40;;;;;;5076606;28;20099;-68
2022/09/28 09:40:19;;;;;;;42.60;25.02;;;33.70;81.90;;;;;;5103813;28;20108;-69
2022/09/28 09:42:54;;;;;;;51.20;24.80;;;33.60;82.40;;;;;;5100139;28;20035;-69
2022/09/28 09:45:56;;;;;;;37.10;22.83;;;33.50;82.50;;;;;;5099833;28;20019;-68
2022/09/28 09:48:30;;;;;;;63.05;36.08;;;33.40;82.50;;;;;;5103757;28;20051;-71
2022/09/28 09:51:08;;;;;;;40.50;24.73;;;33.40;83.30;;;;;;5103728;28;20111;-68
2022/09/28 09:53:42;;;;;;;33.65;21.58;;;33.40;83.80;;;;;;5102434;28;20020;-70
2022/09/28 09:56:20;;;;;;;36.25;22.40;;;33.30;82.40;;;;;;5099598;28;20102;-71
2022/09/28 09:58:52;;;;;;;33.78;18.38;;;33.30;84.80;;;;;;5099738;28;20940;-68
2022/09/28 10:01:20;;;;;;;;;;;33.20;83.70;;;;;;5101454;28;20071;-67
2022/09/28 10:03:48;;;;;;;39.20;19.77;;;33.20;83.40;;;;;;5100656;28;19968;-69
2022/09/28 10:06:25;;;;;;;43.80;20.05;;;33.20;82.80;;;;;;5102179;28;20107;-69
2022/09/28 10:09:04;;;;;;;37.47;19.20;;;33.10;85.00;;;;;;5099965;28;20093;-68
2022/09/28 10:11:41;;;;;;;41.03;17.45;;;33.10;82.80;;;;;;5100825;28;20016;-68
2022/09/28 10:14:16;;;;;;;114.35;77.22;;;33.10;82.90;;;;;;5091536;28;20079;-68
2022/09/28 10:16:45;;;;;;;114.63;77.05;;;33.00;84.40;;;;;;5094475;28;20012;-68
2022/09/28 10:19:12;;;;;;;72.80;43.78;;;33.00;83.90;;;;;;5093148;28;20019;-68
2022/09/28 10:21:41;;;;;;;105.63;76.55;;;33.10;83.10;;;;;;5104757;28;20447;-66
2022/09/28 10:24:17;;;;;;;59.20;38.63;;;33.00;84.20;;;;;;5102972;28;20055;-68
2022/09/28 10:26:53;;;;;;;67.80;45.10;;;33.00;84.90;;;;;;5096591;28;20020;-67
2022/09/28 10:29:24;;;;;;;77.72;45.70;;;33.00;85.00;;;;;;5104721;28;20023;-67
2022/09/28 10:31:53;;;;;;;130.65;76.57;;;33.00;86.80;;;;;;5100233;28;20538;-67
2022/09/28 10:34:29;;;;;;;46.05;29.85;;;33.00;87.20;;;;;;5104176;28;20455;-67
2022/09/28 10:37:02;;;;;;;53.58;29.70;;;33.00;85.90;;;;;;5101731;28;20179;-68
2022/09/28 10:39:32;;;;;;;200.68;128.23;;;32.90;87.10;;;;;;5099519;28;20038;-68
2022/09/28 10:42:03;;;;;;;60.00;38.78;;;32.90;86.60;;;;;;5103163;28;20031;-69
2022/09/28 10:44:32;;;;;;;52.97;35.05;;;32.80;87.10;;;;;;5099265;28;20544;-68
2022/09/28 10:47:03;;;;;;;41.83;26.63;;;32.70;87.20;;;;;;5093919;28;20390;-69
2022/09/28 10:49:47;;;;;;;90.97;51.75;;;32.60;90.00;;;;;;5104730;28;20040;-68
2022/09/28 10:52:35;;;;;;;74.38;44.92;;;32.60;88.80;;;;;;5113888;28;20028;-70
2022/09/28 10:55:23;;;;;;;72.18;42.90;;;32.50;87.80;;;;;;5112724;28;20467;-70
2022/09/28 10:57:49;;;;;;;60.92;33.25;;;32.40;89.80;;;;;;5113713;28;20110;-70
2022/09/28 11:00:33;;;;;;;115.57;62.40;;;32.40;89.30;;;;;;5113509;28;20034;-70
2022/09/28 11:03:01;;;;;;;70.95;42.47;;;32.30;89.70;;;;;;5113858;28;20019;-69
2022/09/28 11:05:28;;;;;;;64.70;37.75;;;32.20;89.00;;;;;;5113837;28;20066;-68
2022/09/28 11:07:58;;;;;;;52.83;29.30;;;32.20;90.20;;;;;;5113487;28;20110;-69
2022/09/28 11:10:29;;;;;;;46.63;25.10;;;32.00;90.30;;;;;;5113904;28;20024;-68
2022/09/28 11:12:56;;;;;;;55.38;34.08;;;32.00;90.80;;;;;;5113993;28;20047;-69
2022/09/28 11:15:33;;;;;;;50.38;27.45;;;32.00;91.00;;;;;;5113747;28;20027;-69
2022/09/28 11:18:33;;;;;;;38.00;23.08;;;31.90;91.00;;;;;;5113872;28;20055;-69
2022/09/28 11:21:13;;;;;;;159.27;107.57;;;31.90;91.20;;;;;;5011235;28;20048;-69
2022/09/28 11:23:41;;;;;;;250.95;159.20;;;31.80;91.40;;;;;;5011046;28;20575;-69
2022/09/28 11:26:08;;;;;;;288.13;165.32;;;31.70;91.40;;;;;;5011075;28;20370;-68
2022/09/28 11:28:37;;;;;;;155.65;82.50;;;31.70;92.10;;;;;;5010899;28;20038;-68
2022/09/28 11:31:07;;;;;;;112.05;58.88;;;31.70;91.70;;;;;;5010859;28;20080;-69
2022/09/28 11:33:45;;;;;;;96.15;41.75;;;31.60;91.90;;;;;;5011102;28;20492;-70
2022/09/28 11:36:13;;;;;;;324.48;218.68;;;31.60;92.10;;;;;;5010884;28;20058;-69
2022/09/28 11:38:39;;;;;;;93.63;49.47;;;31.60;92.80;;;;;;5011024;28;20488;-71
2022/09/28 11:41:16;;;;;;;160.65;96.15;;;31.50;92.50;;;;;;5011003;28;20065;-67
2022/09/28 11:43:45;;;;;;;393.15;276.80;;;31.50;92.50;;;;;;5010738;28;20106;-67
2022/09/28 11:46:19;;;;;;;105.15;62.55;;;31.50;92.80;;;;;;5011501;28;20033;-68
2022/09/28 11:48:50;;;;;;;94.25;46.13;;;31.50;92.00;;;;;;4994943;28;20142;-70
2022/09/28 11:51:26;;;;;;;71.80;34.03;;;31.50;92.00;;;;;;4994535;28;20042;-68
2022/09/28 11:54:09;;;;;;;56.35;27.98;;;31.50;92.30;;;;;;4995204;28;20037;-68
2022/09/28 11:56:47;;;;;;;66.32;28.75;;;31.40;92.50;;;;;;4995139;28;20482;-69
2022/09/28 11:59:26;;;;;;;54.45;27.55;;;31.40;92.50;;;;;;4992581;28;20350;-68
2022/09/28 12:01:57;;;;;;;60.83;29.25;;;31.30;92.50;;;;;;4984567;28;20035;-67
2022/09/28 12:04:46;;;;;;;48.55;25.67;;;31.30;92.50;;;;;;4975739;28;20027;-68
2022/09/28 12:07:32;;;;;;;41.08;23.63;;;31.30;92.30;;;;;;4974623;28;20047;-70
2022/09/28 12:10:08;;;;;;;33.00;19.40;;;31.10;92.30;;;;;;4987351;28;20085;-66
2022/09/28 12:13:01;;;;;;;34.35;19.35;;;31.10;92.80;;;;;;4994655;28;20029;-67
2022/09/28 12:15:51;;;;;;;41.05;20.35;;;31.10;92.40;;;;;;4985869;28;20035;-66
2022/09/28 12:18:28;;;;;;;32.38;17.95;;;31.00;92.90;;;;;;4973622;28;20039;-67
2022/09/28 12:21:08;;;;;;;32.38;18.40;;;31.00;92.70;;;;;;4974743;28;20043;-66
2022/09/28 12:23:39;;;;;;;28.52;16.95;;;31.00;93.10;;;;;;4975153;28;20026;-67
2022/09/28 12:26:40;;;;;;;24.48;16.70;;;30.90;93.50;;;;;;4975076;28;20035;-68
2022/09/28 12:29:15;;;;;;;30.92;17.70;;;30.90;93.80;;;;;;4977490;28;20089;-67
2022/09/28 12:31:53;;;;;;;25.38;16.75;;;30.80;93.90;;;;;;4991312;28;20022;-68
2022/09/28 12:34:21;;;;;;;30.60;17.27;;;30.80;93.70;;;;;;4987967;28;20135;-69
2022/09/28 12:37:08;;;;;;;31.63;15.35;;;30.70;94.10;;;;;;4980587;28;20031;-68
2022/09/28 12:40:03;;;;;;;28.20;16.70;;;30.80;94.10;;;;;;4991309;28;20023;-67
2022/09/28 12:42:32;;;;;;;34.60;19.15;;;30.80;94.10;;;;;;4993989;28;20030;-68
2022/09/28 12:44:59;;;;;;;24.55;16.02;;;30.70;94.10;;;;;;4994418;28;20026;-68
2022/09/28 12:47:36;;;;;;;32.75;16.77;;;30.70;94.80;;;;;;4977751;28;20441;-69
2022/09/28 12:50:11;;;;;;;28.48;16.48;;;30.70;95.00;;;;;;4993982;28;20050;-68
2022/09/28 12:52:49;;;;;;;30.75;16.10;;;30.70;95.00;;;;;;4994107;28;20022;-69
2022/09/28 12:55:38;;;;;;;29.55;15.93;;;30.60;95.10;;;;;;5005356;28;20022;-68
2022/09/28 12:58:44;;;;;;;27.05;17.50;;;30.50;94.90;;;;;;5010411;28;20038;-68
2022/09/28 13:01:31;;;;;;;32.83;17.48;;;30.50;95.20;;;;;;4994279;28;20041;-69
2022/09/28 13:04:06;;;;;;;30.17;17.98;;;30.50;95.40;;;;;;4954813;29;20039;-69